Time;durP1;ratioP1;P1;durP2;ratioP2;P2;SDS_P1;SDS_P2;PMS_P1;PMS_P2;Temp;Humidity;BMP_temperature;BMP_pressure;BME280_temperature;BME280_humidity;BME280_pressure;Samples;Min_cycle;Max_cycle;Signal;HPM_P1;HPM_P2
2023/06/21 00:01:17;;;;;;;27.38;18.98;;;23.40;99.90;;;;;;5028279;28;20122;-72
2023/06/21 00:08:19;;;;;;;22.50;18.98;;;23.30;99.90;;;;;;5024349;28;20383;-72
2023/06/21 00:11:05;;;;;;;25.13;19.52;;;23.30;99.90;;;;;;5030517;28;20033;-74
2023/06/21 00:13:54;;;;;;;25.48;20.17;;;23.30;99.90;;;;;;5028429;28;20524;-74
2023/06/21 00:16:40;;;;;;;25.02;19.35;;;23.20;99.90;;;;;;5020430;28;20034;-74
2023/06/21 00:19:26;;;;;;;26.88;20.27;;;23.20;99.90;;;;;;5029763;28;20037;-74
2023/06/21 00:22:14;;;;;;;23.38;18.65;;;23.20;99.90;;;;;;5024362;28;20549;-74
2023/06/21 00:24:59;;;;;;;22.55;18.30;;;23.10;99.90;;;;;;5011257;28;20030;-74
2023/06/21 00:27:45;;;;;;;22.65;18.50;;;23.10;99.90;;;;;;5017719;28;20073;-74
2023/06/21 00:30:31;;;;;;;25.58;18.77;;;23.10;99.90;;;;;;5013449;28;20029;-74
2023/06/21 00:33:17;;;;;;;23.95;18.70;;;23.10;99.90;;;;;;4977300;28;20051;-73
2023/06/21 00:36:03;;;;;;;23.67;18.40;;;23.00;99.90;;;;;;4974396;28;20031;-74
2023/06/21 00:38:49;;;;;;;27.50;20.38;;;23.00;99.90;;;;;;4975598;28;20089;-74
2023/06/21 00:41:35;;;;;;;26.08;18.70;;;23.00;99.90;;;;;;4978931;28;20045;-73
2023/06/21 00:44:22;;;;;;;25.30;19.98;;;23.00;99.90;;;;;;4991693;28;20153;-74
2023/06/21 00:47:08;;;;;;;22.27;18.02;;;23.00;99.90;;;;;;4975864;28;20034;-75
2023/06/21 00:49:53;;;;;;;24.38;19.33;;;23.00;99.90;;;;;;4979186;28;20042;-72
2023/06/21 00:52:42;;;;;;;24.75;19.00;;;23.00;99.90;;;;;;4973321;28;20046;-73
2023/06/21 00:55:28;;;;;;;25.70;19.95;;;23.00;99.90;;;;;;4997256;28;20053;-72
2023/06/21 00:58:14;;;;;;;24.40;18.73;;;23.00;99.90;;;;;;4978064;28;20041;-72
2023/06/21 01:01:00;;;;;;;23.48;18.08;;;22.90;99.90;;;;;;4982057;28;20042;-71
2023/06/21 01:03:46;;;;;;;22.27;18.20;;;22.90;99.90;;;;;;4991005;28;20442;-71
2023/06/21 01:06:56;;;;;;;24.33;19.33;;;22.90;99.90;;;;;;4985688;28;20135;-72
2023/06/21 01:10:00;;;;;;;23.88;17.38;;;22.90;99.90;;;;;;4989847;28;20060;-74
2023/06/21 01:13:25;;;;;;;25.02;17.98;;;22.90;99.90;;;;;;4995684;28;20030;-72
2023/06/21 01:16:14;;;;;;;21.33;17.77;;;22.90;99.90;;;;;;4989052;28;20046;-71
2023/06/21 01:19:03;;;;;;;21.48;16.65;;;22.80;99.90;;;;;;4985903;28;20026;-72
2023/06/21 01:21:52;;;;;;;23.45;17.35;;;22.80;99.90;;;;;;4990151;28;20121;-69
2023/06/21 01:24:54;;;;;;;20.98;17.15;;;22.80;99.90;;;;;;4976495;28;20026;-69
2023/06/21 01:27:52;;;;;;;23.40;18.05;;;22.80;99.90;;;;;;4991266;28;20039;-69
2023/06/21 01:30:39;;;;;;;21.58;17.45;;;22.80;99.90;;;;;;4986582;28;20656;-69
2023/06/21 01:33:31;;;;;;;21.48;17.90;;;22.80;99.90;;;;;;5021857;28;20045;-68
2023/06/21 01:36:18;;;;;;;23.83;17.48;;;22.80;99.90;;;;;;5027217;28;20492;-69
2023/06/21 01:39:05;;;;;;;22.98;17.95;;;22.90;99.90;;;;;;5022474;28;20044;-69
2023/06/21 01:41:51;;;;;;;21.00;16.85;;;22.90;99.90;;;;;;5022861;28;20037;-69
2023/06/21 01:44:38;;;;;;;22.67;17.85;;;22.90;99.90;;;;;;5030210;28;20057;-69
2023/06/21 01:47:25;;;;;;;22.98;18.05;;;22.90;99.90;;;;;;5020744;28;20474;-70
2023/06/21 01:50:12;;;;;;;20.65;17.15;;;22.90;99.90;;;;;;5019127;28;20044;-72
2023/06/21 01:53:00;;;;;;;22.23;17.55;;;22.90;99.90;;;;;;5010409;28;20034;-71
2023/06/21 01:55:49;;;;;;;20.88;16.65;;;22.90;99.90;;;;;;5012725;28;20076;-71
2023/06/21 01:58:35;;;;;;;21.52;17.35;;;22.90;99.90;;;;;;5010215;28;20061;-71
2023/06/21 02:01:26;;;;;;;20.42;16.40;;;22.90;99.90;;;;;;5018149;28;20045;-72
2023/06/21 02:04:12;;;;;;;20.13;15.90;;;22.90;99.90;;;;;;5018556;28;20084;-73
2023/06/21 02:06:59;;;;;;;20.23;15.40;;;22.90;99.90;;;;;;5020108;28;20034;-69
2023/06/21 02:09:46;;;;;;;20.88;15.55;;;22.90;99.90;;;;;;5009329;28;20496;-68
2023/06/21 02:12:33;;;;;;;20.80;16.48;;;22.90;99.90;;;;;;5022943;28;20045;-69
2023/06/21 02:15:19;;;;;;;19.58;15.13;;;22.90;99.90;;;;;;5027305;28;20099;-70
2023/06/21 02:18:05;;;;;;;22.27;16.35;;;22.90;99.90;;;;;;5026261;28;20109;-70
2023/06/21 02:20:52;;;;;;;19.88;15.73;;;22.90;99.90;;;;;;5014407;28;20076;-75
2023/06/21 02:23:38;;;;;;;19.77;15.02;;;23.00;99.90;;;;;;5016662;28;20089;-77
2023/06/21 02:26:24;;;;;;;16.23;13.98;;;23.00;99.90;;;;;;5018508;28;20430;-77
2023/06/21 02:29:10;;;;;;;22.45;16.50;;;23.00;99.90;;;;;;5008983;28;20034;-77
2023/06/21 02:31:56;;;;;;;22.20;16.50;;;23.00;99.90;;;;;;5022888;28;20518;-75
2023/06/21 02:34:42;;;;;;;20.55;15.88;;;23.00;99.90;;;;;;5010617;28;20292;-74
2023/06/21 02:37:28;;;;;;;20.60;16.13;;;23.00;99.90;;;;;;5009842;28;20038;-75
2023/06/21 02:40:14;;;;;;;20.23;16.52;;;23.00;99.90;;;;;;5027425;28;20064;-75
2023/06/21 02:43:00;;;;;;;24.55;17.10;;;23.00;99.90;;;;;;5008628;28;20029;-74
2023/06/21 02:45:46;;;;;;;24.83;16.98;;;22.90;99.90;;;;;;5013113;28;20485;-75
2023/06/21 02:48:32;;;;;;;21.38;16.40;;;22.90;99.90;;;;;;5023588;28;20124;-75
2023/06/21 02:51:20;;;;;;;22.10;17.15;;;22.90;99.90;;;;;;5017430;28;20189;-76
2023/06/21 02:54:06;;;;;;;22.35;17.13;;;22.90;99.90;;;;;;5018700;28;20038;-75
2023/06/21 02:56:52;;;;;;;23.65;18.77;;;22.90;99.90;;;;;;5021089;28;20490;-74
2023/06/21 02:59:38;;;;;;;22.02;18.40;;;22.80;99.90;;;;;;5030012;28;20099;-75
2023/06/21 03:02:32;;;;;;;24.58;18.13;;;22.80;99.90;;;;;;5016946;28;20034;-75
2023/06/21 03:05:18;;;;;;;23.20;18.42;;;22.80;99.90;;;;;;5015979;28;20036;-75
2023/06/21 03:08:04;;;;;;;26.48;19.80;;;22.80;99.90;;;;;;5010119;28;20029;-75
2023/06/21 03:10:50;;;;;;;26.52;18.40;;;22.80;99.90;;;;;;5019966;28;20057;-75
2023/06/21 03:13:37;;;;;;;26.02;19.15;;;22.80;99.90;;;;;;5032377;28;20482;-75
2023/06/21 03:16:23;;;;;;;24.75;19.50;;;22.70;99.90;;;;;;5029349;28;20112;-75
2023/06/21 03:19:09;;;;;;;25.80;19.50;;;22.70;99.90;;;;;;5031748;28;20037;-75
2023/06/21 03:21:55;;;;;;;25.20;19.98;;;22.70;99.90;;;;;;5028851;28;20056;-75
2023/06/21 03:24:41;;;;;;;23.33;18.95;;;22.70;99.90;;;;;;5031757;28;20037;-75
2023/06/21 03:27:27;;;;;;;22.25;18.58;;;22.70;99.90;;;;;;5030969;28;20033;-75
2023/06/21 03:30:13;;;;;;;23.20;17.52;;;22.70;99.90;;;;;;5030584;28;20022;-75
2023/06/21 03:32:59;;;;;;;29.42;19.73;;;22.70;99.90;;;;;;5032095;28;20441;-75
2023/06/21 03:35:46;;;;;;;25.75;18.77;;;22.70;99.90;;;;;;5025787;28;20026;-75
2023/06/21 03:38:32;;;;;;;23.38;18.45;;;22.70;99.90;;;;;;5026508;28;20038;-76
2023/06/21 03:41:18;;;;;;;24.70;18.45;;;22.70;99.90;;;;;;5011695;28;20033;-76
2023/06/21 03:44:04;;;;;;;23.65;18.73;;;22.70;99.90;;;;;;5011895;28;20040;-77
2023/06/21 03:46:50;;;;;;;24.08;18.70;;;22.70;99.90;;;;;;5024334;28;20128;-77
2023/06/21 03:49:36;;;;;;;25.17;19.70;;;22.70;99.90;;;;;;5032500;28;20042;-76
2023/06/21 03:52:22;;;;;;;26.88;20.77;;;22.70;99.90;;;;;;5013106;28;20048;-77
2023/06/21 03:55:08;;;;;;;26.08;19.38;;;22.70;99.90;;;;;;5027153;28;20179;-76
2023/06/21 03:57:54;;;;;;;25.33;19.13;;;22.70;99.90;;;;;;5028096;28;20025;-77
2023/06/21 04:00:40;;;;;;;24.50;19.42;;;22.70;99.90;;;;;;5015993;28;20124;-77
2023/06/21 04:03:27;;;;;;;27.85;21.30;;;22.70;99.90;;;;;;5018095;28;20137;-78
2023/06/21 04:06:13;;;;;;;25.63;19.98;;;22.70;99.90;;;;;;5029855;28;20112;-77
2023/06/21 04:08:58;;;;;;;29.10;20.42;;;22.70;99.90;;;;;;5030097;28;20394;-76
2023/06/21 04:11:45;;;;;;;24.77;19.10;;;22.70;99.90;;;;;;5027913;28;20470;-69
2023/06/21 04:14:31;;;;;;;26.45;21.08;;;22.80;99.90;;;;;;5032092;28;20462;-77
2023/06/21 04:17:17;;;;;;;30.80;21.58;;;22.80;99.90;;;;;;5011005;28;20403;-72
2023/06/21 04:20:10;;;;;;;32.50;21.90;;;22.80;99.90;;;;;;5011014;28;20050;-74
2023/06/21 04:22:57;;;;;;;31.25;22.33;;;22.80;99.90;;;;;;5010840;28;20033;-73
2023/06/21 04:25:43;;;;;;;28.10;20.38;;;22.80;99.90;;;;;;5013137;28;20559;-77
2023/06/21 04:28:29;;;;;;;28.42;21.60;;;22.80;99.90;;;;;;5018579;28;20037;-67
2023/06/21 04:31:15;;;;;;;27.50;20.65;;;22.70;99.90;;;;;;5018128;28;20456;-70
2023/06/21 04:34:01;;;;;;;28.30;21.30;;;22.80;99.90;;;;;;5030950;28;20076;-69
2023/06/21 04:36:47;;;;;;;27.05;20.67;;;22.90;99.90;;;;;;5021508;28;20086;-71
2023/06/21 04:39:34;;;;;;;25.70;20.85;;;22.90;99.90;;;;;;5014719;28;20034;-71
2023/06/21 04:42:20;;;;;;;29.77;21.00;;;23.00;99.90;;;;;;5024227;28;20037;-71
2023/06/21 04:45:07;;;;;;;33.55;24.13;;;23.00;99.90;;;;;;5025343;28;20030;-71
2023/06/21 04:47:57;;;;;;;33.70;23.58;;;23.10;99.90;;;;;;5021554;28;20129;-71
2023/06/21 04:50:45;;;;;;;32.15;23.05;;;23.20;99.90;;;;;;5017551;28;20120;-71
2023/06/21 04:53:31;;;;;;;32.10;23.55;;;23.30;99.90;;;;;;5012520;28;20116;-71
2023/06/21 04:56:17;;;;;;;32.22;23.63;;;23.40;99.90;;;;;;5019007;28;20037;-71
2023/06/21 04:59:03;;;;;;;31.80;23.02;;;23.40;99.90;;;;;;5012274;28;20384;-71
2023/06/21 05:01:49;;;;;;;31.65;24.30;;;23.50;99.90;;;;;;5016780;28;20797;-71
2023/06/21 05:04:35;;;;;;;32.63;23.38;;;23.50;99.90;;;;;;5028109;28;20029;-71
2023/06/21 05:07:21;;;;;;;30.38;22.85;;;23.60;99.90;;;;;;5027265;28;20120;-71
2023/06/21 05:10:08;;;;;;;28.75;22.13;;;23.70;99.90;;;;;;5016407;28;20045;-71
2023/06/21 05:12:54;;;;;;;29.30;21.98;;;23.70;99.90;;;;;;5020880;28;20379;-72
2023/06/21 05:15:40;;;;;;;29.95;22.83;;;23.80;99.90;;;;;;5025777;28;20538;-72
2023/06/21 05:18:26;;;;;;;30.40;22.95;;;23.80;99.90;;;;;;5013830;28;20037;-72
2023/06/21 05:21:12;;;;;;;30.08;22.55;;;24.00;99.90;;;;;;5018748;28;20106;-72
2023/06/21 05:23:58;;;;;;;33.42;24.45;;;24.00;99.90;;;;;;5028213;28;20041;-72
2023/06/21 05:26:44;;;;;;;31.13;22.35;;;24.10;99.90;;;;;;5028182;28;20099;-71
2023/06/21 05:29:30;;;;;;;29.02;21.88;;;24.20;99.90;;;;;;5027547;28;20126;-71
2023/06/21 05:32:16;;;;;;;30.13;22.60;;;24.30;99.90;;;;;;5024368;28;20053;-72
2023/06/21 05:35:02;;;;;;;25.90;20.65;;;24.50;99.90;;;;;;5017454;28;20037;-73
2023/06/21 05:37:48;;;;;;;30.13;21.38;;;24.60;99.90;;;;;;5022978;28;20030;-73
2023/06/21 05:40:34;;;;;;;28.02;22.17;;;24.70;99.90;;;;;;5022773;28;20056;-68
2023/06/21 05:43:20;;;;;;;27.92;20.88;;;24.70;99.90;;;;;;5021548;28;20106;-67
2023/06/21 05:46:06;;;;;;;27.30;19.58;;;24.70;99.90;;;;;;5010559;28;20171;-68
2023/06/21 05:48:52;;;;;;;26.67;19.73;;;24.80;99.90;;;;;;5028665;28;20068;-68
2023/06/21 05:51:38;;;;;;;26.58;18.92;;;24.90;99.90;;;;;;5029003;28;20419;-69
2023/06/21 05:54:24;;;;;;;27.70;19.98;;;25.00;99.90;;;;;;5019972;28;20116;-68
2023/06/21 05:57:10;;;;;;;23.67;18.58;;;25.10;99.90;;;;;;5017143;28;20236;-68
2023/06/21 05:59:57;;;;;;;24.15;19.20;;;25.10;99.90;;;;;;5022463;28;20042;-68
2023/06/21 06:02:43;;;;;;;26.33;19.23;;;25.10;99.90;;;;;;5025384;28;20076;-65
2023/06/21 06:05:29;;;;;;;22.23;17.70;;;25.20;99.90;;;;;;5020628;28;20065;-66
2023/06/21 06:08:16;;;;;;;26.63;17.40;;;25.30;99.90;;;;;;5026098;28;20037;-70
2023/06/21 06:11:01;;;;;;;24.00;17.95;;;25.30;99.90;;;;;;5012166;28;20034;-67
2023/06/21 06:13:47;;;;;;;24.23;18.17;;;25.30;99.90;;;;;;5027123;28;20041;-68
2023/06/21 06:16:33;;;;;;;24.05;17.40;;;25.30;99.90;;;;;;5020365;28;20112;-67
2023/06/21 06:19:19;;;;;;;22.73;16.30;;;25.30;99.90;;;;;;5029770;28;20026;-67
2023/06/21 06:22:05;;;;;;;22.38;16.40;;;25.30;99.90;;;;;;5022386;28;20037;-68
2023/06/21 06:24:51;;;;;;;20.98;16.95;;;25.30;99.90;;;;;;5014381;28;20046;-68
2023/06/21 06:27:38;;;;;;;22.65;17.52;;;25.40;99.90;;;;;;5025771;28;20026;-68
2023/06/21 06:30:24;;;;;;;24.52;17.35;;;25.40;99.90;;;;;;5013918;28;20037;-66
2023/06/21 06:33:10;;;;;;;23.15;16.83;;;25.50;99.90;;;;;;5013306;28;20534;-67
2023/06/21 06:35:56;;;;;;;24.85;18.73;;;25.50;99.90;;;;;;5023075;28;20033;-66
2023/06/21 06:38:44;;;;;;;26.30;18.05;;;25.50;99.90;;;;;;5007351;28;20033;-66
2023/06/21 06:41:30;;;;;;;23.45;17.77;;;25.50;99.90;;;;;;5010444;28;20104;-67
2023/06/21 06:44:16;;;;;;;25.23;18.73;;;25.60;99.90;;;;;;5025175;28;20372;-67
2023/06/21 06:47:02;;;;;;;24.08;17.95;;;25.60;99.90;;;;;;5021420;28;20486;-65
2023/06/21 06:49:48;;;;;;;24.50;18.27;;;25.70;99.90;;;;;;5022413;28;20445;-66
2023/06/21 06:52:34;;;;;;;23.73;17.67;;;25.70;99.90;;;;;;5025026;28;20100;-67
2023/06/21 06:55:20;;;;;;;21.92;17.08;;;25.80;99.90;;;;;;5025981;28;20076;-67
2023/06/21 06:58:06;;;;;;;23.73;17.73;;;25.80;99.90;;;;;;5023500;28;20114;-67
2023/06/21 07:00:52;;;;;;;25.30;17.17;;;25.80;99.90;;;;;;5019883;28;20052;-67
2023/06/21 07:03:38;;;;;;;23.48;17.50;;;25.80;99.90;;;;;;5027950;28;20475;-66
2023/06/21 07:06:24;;;;;;;22.90;16.27;;;25.90;99.90;;;;;;5016029;28;20463;-67
2023/06/21 07:09:10;;;;;;;23.10;15.98;;;25.90;99.90;;;;;;5026287;28;20041;-67
2023/06/21 07:11:59;;;;;;;22.23;16.55;;;25.90;99.90;;;;;;5019246;28;20456;-67
2023/06/21 07:14:45;;;;;;;18.90;14.88;;;26.00;99.90;;;;;;5019301;28;20037;-67
2023/06/21 07:17:31;;;;;;;18.55;15.52;;;26.10;99.90;;;;;;5030248;28;20504;-67
2023/06/21 07:20:16;;;;;;;21.02;16.25;;;26.10;99.90;;;;;;5014052;28;20204;-67
2023/06/21 07:23:03;;;;;;;20.15;15.63;;;26.20;99.90;;;;;;5031797;28;20069;-67
2023/06/21 07:25:49;;;;;;;19.67;14.50;;;26.20;99.90;;;;;;5028849;28;20100;-66
2023/06/21 07:28:35;;;;;;;19.10;14.80;;;26.20;99.90;;;;;;5022350;28;20037;-66
2023/06/21 07:31:21;;;;;;;18.40;14.45;;;26.30;99.90;;;;;;5020435;28;20073;-67
2023/06/21 07:34:10;;;;;;;19.63;13.35;;;26.30;99.90;;;;;;5032102;28;20036;-66
2023/06/21 07:36:56;;;;;;;17.90;13.60;;;26.30;99.90;;;;;;5027951;28;20144;-65
2023/06/21 07:39:41;;;;;;;14.23;11.98;;;26.30;99.90;;;;;;5025199;28;20037;-67
2023/06/21 07:42:27;;;;;;;15.20;12.32;;;26.30;99.90;;;;;;5030861;28;20152;-66
2023/06/21 07:45:13;;;;;;;18.85;12.10;;;26.20;99.90;;;;;;5026403;28;20037;-66
2023/06/21 07:47:59;;;;;;;18.13;11.05;;;26.20;99.90;;;;;;5023868;28;20368;-66
2023/06/21 07:50:45;;;;;;;14.18;10.73;;;26.20;99.90;;;;;;5031517;28;20029;-65
2023/06/21 07:53:31;;;;;;;15.30;11.82;;;26.20;99.90;;;;;;5025311;28;20526;-66
2023/06/21 07:56:17;;;;;;;25.52;18.05;;;26.10;99.90;;;;;;5015271;28;20030;-66
2023/06/21 07:59:03;;;;;;;25.38;18.75;;;26.10;99.90;;;;;;5011757;28;20040;-66
2023/06/21 08:01:49;;;;;;;21.38;14.88;;;26.20;99.90;;;;;;5012306;28;20050;-66
2023/06/21 08:04:38;;;;;;;14.32;11.27;;;26.20;99.90;;;;;;5011898;28;20030;-66
2023/06/21 08:07:24;;;;;;;13.30;10.20;;;26.30;99.90;;;;;;5027566;28;20486;-66
2023/06/21 08:10:11;;;;;;;13.30;9.38;;;26.40;99.90;;;;;;5028391;28;20510;-67
2023/06/21 08:12:57;;;;;;;11.52;9.82;;;26.50;99.90;;;;;;5011430;28;20180;-66
2023/06/21 08:15:43;;;;;;;13.73;11.27;;;26.50;99.90;;;;;;5014666;28;20785;-66
2023/06/21 08:18:29;;;;;;;17.17;11.85;;;26.50;99.90;;;;;;5015749;28;20042;-66
2023/06/21 08:21:15;;;;;;;15.45;9.90;;;26.50;99.90;;;;;;5018217;28;20053;-66
2023/06/21 08:24:01;;;;;;;12.80;9.10;;;26.60;99.90;;;;;;5019243;28;20159;-67
2023/06/21 08:26:47;;;;;;;22.77;15.95;;;26.60;99.90;;;;;;5021561;28;20124;-67
2023/06/21 08:29:33;;;;;;;25.83;15.85;;;26.60;99.90;;;;;;5012266;28;20104;-67
2023/06/21 08:32:19;;;;;;;34.67;20.70;;;26.60;99.90;;;;;;5012116;28;20045;-66
2023/06/21 08:35:06;;;;;;;24.25;16.98;;;26.60;99.90;;;;;;5024638;28;20090;-66
2023/06/21 08:37:57;;;;;;;16.08;11.88;;;26.70;99.80;;;;;;5010762;28;20038;-66
2023/06/21 08:40:45;;;;;;;35.72;23.08;;;26.80;99.80;;;;;;5011689;28;20123;-66
2023/06/21 08:43:31;;;;;;;38.25;25.73;;;26.80;99.80;;;;;;5018274;28;20037;-66
2023/06/21 08:46:20;;;;;;;36.60;23.08;;;26.90;99.60;;;;;;5017924;28;20044;-66
2023/06/21 08:49:13;;;;;;;17.00;12.55;;;27.00;99.40;;;;;;5010685;28;20069;-67
2023/06/21 08:52:02;;;;;;;14.30;10.75;;;27.00;99.50;;;;;;5014217;28;20494;-67
2023/06/21 08:54:55;;;;;;;18.20;11.82;;;27.10;99.50;;;;;;5021951;28;20068;-67
2023/06/21 08:57:49;;;;;;;12.25;9.15;;;27.20;99.30;;;;;;5020746;28;20828;-67
2023/06/21 09:00:50;;;;;;;11.45;8.70;;;27.30;99.10;;;;;;5014677;28;20375;-67
2023/06/21 09:04:01;;;;;;;18.42;9.43;;;27.30;99.00;;;;;;5028010;28;20521;-67
2023/06/21 09:06:48;;;;;;;10.10;7.43;;;27.30;99.00;;;;;;5013604;28;20387;-67
2023/06/21 09:09:35;;;;;;;11.48;7.15;;;27.40;98.70;;;;;;5012915;28;20048;-67
2023/06/21 09:12:21;;;;;;;9.57;7.20;;;27.40;98.40;;;;;;5011005;28;20037;-67
2023/06/21 09:15:08;;;;;;;10.43;6.07;;;27.40;98.30;;;;;;5010358;28;20052;-67
2023/06/21 09:17:56;;;;;;;8.43;6.00;;;27.40;98.10;;;;;;5011862;28;20068;-67
2023/06/21 09:20:47;;;;;;;10.88;7.28;;;27.50;98.00;;;;;;5010753;28;20051;-67
2023/06/21 09:23:33;;;;;;;15.25;8.30;;;27.50;98.20;;;;;;5014841;28;20095;-67
2023/06/21 09:26:19;;;;;;;11.38;8.77;;;27.50;98.20;;;;;;5010618;28;20044;-69
2023/06/21 09:29:05;;;;;;;8.68;6.40;;;27.50;97.90;;;;;;5010032;28;20032;-67
2023/06/21 09:31:51;;;;;;;8.60;6.45;;;27.50;97.60;;;;;;5010018;28;20494;-67
2023/06/21 09:34:38;;;;;;;17.63;12.30;;;27.50;97.60;;;;;;5009827;28;20090;-67
2023/06/21 09:37:38;;;;;;;12.02;8.25;;;27.60;97.60;;;;;;5010981;28;20041;-68
2023/06/21 09:40:24;;;;;;;12.10;8.10;;;27.70;97.60;;;;;;5011979;28;20037;-68
2023/06/21 09:43:10;;;;;;;13.00;9.32;;;27.70;97.60;;;;;;5010874;28;20038;-67
2023/06/21 09:46:03;;;;;;;15.13;9.65;;;27.90;97.30;;;;;;5010203;28;20046;-68
2023/06/21 09:48:49;;;;;;;12.18;7.47;;;28.00;97.00;;;;;;5009934;28;20033;-68
2023/06/21 09:51:43;;;;;;;9.57;6.18;;;28.10;97.00;;;;;;5010061;28;20032;-68
2023/06/21 09:54:43;;;;;;;7.07;5.33;;;28.30;96.70;;;;;;5009900;28;20452;-68
2023/06/21 09:57:31;;;;;;;7.00;5.82;;;28.40;96.50;;;;;;5011477;28;20053;-68
2023/06/21 10:00:17;;;;;;;8.82;6.53;;;28.40;96.20;;;;;;5015641;28;20108;-67
2023/06/21 10:03:03;;;;;;;8.77;6.07;;;28.50;96.10;;;;;;5010631;28;20048;-68
2023/06/21 10:06:01;;;;;;;8.05;6.00;;;28.50;96.10;;;;;;5010573;28;20223;-68
2023/06/21 10:08:51;;;;;;;6.53;5.88;;;28.60;96.00;;;;;;5010548;28;20033;-68
2023/06/21 10:11:38;;;;;;;8.18;6.38;;;28.70;96.00;;;;;;5011576;28;20041;-68
2023/06/21 10:14:29;;;;;;;7.70;5.45;;;28.80;95.80;;;;;;5012042;28;20037;-68
2023/06/21 10:17:16;;;;;;;8.43;5.80;;;28.90;95.60;;;;;;5022760;28;20029;-67
2023/06/21 10:20:03;;;;;;;7.80;5.72;;;29.00;95.40;;;;;;5011874;28;20103;-67
2023/06/21 10:22:51;;;;;;;7.60;5.90;;;29.10;95.00;;;;;;5009062;28;20563;-68
2023/06/21 10:25:39;;;;;;;7.68;5.40;;;29.20;94.90;;;;;;5009879;28;20034;-67
2023/06/21 10:28:28;;;;;;;8.80;6.00;;;29.20;94.70;;;;;;5012211;28;20549;-67
2023/06/21 10:31:14;;;;;;;6.05;4.60;;;29.20;94.30;;;;;;5008402;28;20053;-68
2023/06/21 10:34:04;;;;;;;7.55;5.45;;;29.30;94.40;;;;;;5008521;28;20532;-68
2023/06/21 10:36:56;;;;;;;6.03;4.97;;;29.30;94.00;;;;;;5010347;28;20049;-68
2023/06/21 10:39:47;;;;;;;6.90;5.18;;;29.30;93.80;;;;;;5010129;28;20026;-68
2023/06/21 10:42:33;;;;;;;6.32;4.50;;;29.30;93.80;;;;;;5008031;28;20541;-68
2023/06/21 10:45:20;;;;;;;9.48;5.10;;;29.30;93.40;;;;;;5013740;28;20033;-68
2023/06/21 10:48:07;;;;;;;9.88;5.80;;;29.30;93.20;;;;;;5011011;28;20049;-68
2023/06/21 10:50:54;;;;;;;7.28;5.22;;;29.30;93.10;;;;;;5011422;28;20103;-68
2023/06/21 10:53:41;;;;;;;7.50;4.60;;;29.30;93.10;;;;;;5011496;28;20034;-68
2023/06/21 10:56:29;;;;;;;8.70;5.22;;;29.30;92.90;;;;;;5013084;28;20083;-68
2023/06/21 10:59:17;;;;;;;8.70;4.90;;;29.30;92.70;;;;;;5027519;28;20064;-68
2023/06/21 11:02:03;;;;;;;6.55;4.68;;;29.30;92.40;;;;;;5019727;28;20041;-68
2023/06/21 11:05:15;;;;;;;6.68;4.72;;;29.30;92.10;;;;;;5008800;28;20518;-68
2023/06/21 11:08:06;;;;;;;6.18;4.50;;;29.20;92.00;;;;;;5026981;28;20037;-68
2023/06/21 11:10:53;;;;;;;8.10;4.80;;;29.20;92.10;;;;;;5024210;28;20113;-68
2023/06/21 11:13:39;;;;;;;6.50;4.50;;;29.30;92.00;;;;;;5024940;28;20040;-68
2023/06/21 11:16:26;;;;;;;6.53;4.55;;;29.30;91.90;;;;;;5023555;28;20506;-67
2023/06/21 11:19:14;;;;;;;4.60;3.88;;;29.40;92.00;;;;;;5018277;28;20557;-68
2023/06/21 11:22:13;;;;;;;6.07;4.68;;;29.50;91.80;;;;;;5021938;28;20073;-68
2023/06/21 11:25:15;;;;;;;7.55;4.10;;;29.50;91.60;;;;;;5026595;28;20022;-68
2023/06/21 11:28:19;;;;;;;6.22;5.18;;;29.50;91.60;;;;;;5011105;28;20080;-68
2023/06/21 11:31:14;;;;;;;9.98;4.90;;;29.60;91.70;;;;;;5017542;28;20100;-68
2023/06/21 11:34:03;;;;;;;5.80;3.70;;;29.70;91.60;;;;;;5017305;28;20037;-67
2023/06/21 11:36:49;;;;;;;6.40;4.65;;;29.70;91.30;;;;;;5019876;28;20394;-68
2023/06/21 11:39:39;;;;;;;5.40;4.05;;;29.80;90.90;;;;;;5014319;28;20060;-68
2023/06/21 11:42:27;;;;;;;11.13;3.88;;;29.70;90.80;;;;;;5013507;28;20109;-67
2023/06/21 11:45:24;;;;;;;5.97;3.88;;;29.70;90.90;;;;;;5017337;28;20041;-69
2023/06/21 11:48:12;;;;;;;4.95;4.00;;;29.70;90.80;;;;;;5017145;28;20049;-68
2023/06/21 11:51:09;;;;;;;4.82;4.15;;;29.70;90.90;;;;;;5015798;28;20088;-68
2023/06/21 11:53:56;;;;;;;6.55;4.18;;;29.70;90.80;;;;;;5017311;28;20037;-68
2023/06/21 11:56:43;;;;;;;4.72;3.78;;;29.60;90.80;;;;;;5017343;28;20026;-69
2023/06/21 11:59:31;;;;;;;8.23;4.47;;;29.60;90.80;;;;;;5016939;28;20046;-68
2023/06/21 12:02:20;;;;;;;5.18;4.10;;;29.60;90.80;;;;;;5025035;28;20399;-67
2023/06/21 12:05:06;;;;;;;7.90;3.80;;;29.50;90.70;;;;;;5016402;28;20613;-68
2023/06/21 12:07:52;;;;;;;4.97;3.95;;;29.50;90.60;;;;;;5015558;28;20502;-67
2023/06/21 12:10:39;;;;;;;5.13;4.07;;;29.50;90.70;;;;;;5014563;28;20061;-68
2023/06/21 12:13:27;;;;;;;6.07;4.22;;;29.50;90.80;;;;;;5016780;28;20029;-68
2023/06/21 12:16:13;;;;;;;5.07;3.95;;;29.50;90.70;;;;;;5016723;28;20097;-68
2023/06/21 12:18:59;;;;;;;5.82;4.05;;;29.50;90.70;;;;;;5018803;28;20040;-68
2023/06/21 12:21:44;;;;;;;5.93;3.88;;;29.60;90.50;;;;;;5019433;28;20034;-68
2023/06/21 12:24:32;;;;;;;4.43;3.70;;;29.60;90.30;;;;;;5023651;28;20061;-69
2023/06/21 12:27:18;;;;;;;5.18;3.75;;;29.60;90.20;;;;;;5012741;28;20069;-68
2023/06/21 12:30:04;;;;;;;7.47;4.13;;;29.70;90.30;;;;;;5019487;28;20022;-69
2023/06/21 12:32:51;;;;;;;5.07;4.07;;;29.70;90.40;;;;;;5016056;28;20485;-68
2023/06/21 12:35:37;;;;;;;5.55;3.88;;;29.80;90.30;;;;;;5018153;28;20419;-68
2023/06/21 12:38:24;;;;;;;6.25;4.10;;;29.90;90.10;;;;;;5010699;28;20026;-68
2023/06/21 12:41:18;;;;;;;7.32;4.13;;;29.90;90.00;;;;;;5017256;28;20069;-68
2023/06/21 12:44:07;;;;;;;5.75;4.10;;;29.90;89.80;;;;;;5016458;28;20034;-68
2023/06/21 12:46:53;;;;;;;4.50;3.60;;;29.80;90.00;;;;;;5015083;28;20038;-68
2023/06/21 12:49:45;;;;;;;7.47;4.18;;;29.70;89.80;;;;;;5018952;28;20035;-68
2023/06/21 12:52:32;;;;;;;5.15;3.83;;;29.60;90.00;;;;;;5016416;28;20057;-68
2023/06/21 12:55:18;;;;;;;5.35;4.13;;;29.60;90.00;;;;;;5016896;28;20127;-70
2023/06/21 12:58:03;;;;;;;5.13;3.80;;;29.60;90.10;;;;;;5022011;28;20484;-71
2023/06/21 13:00:49;;;;;;;5.90;4.43;;;29.70;90.10;;;;;;5015709;28;20049;-71
2023/06/21 13:03:35;;;;;;;10.65;4.45;;;29.80;90.10;;;;;;5016812;28;20034;-72
2023/06/21 13:06:22;;;;;;;5.72;3.80;;;29.90;90.00;;;;;;5018998;28;20567;-68
2023/06/21 13:09:09;;;;;;;4.50;3.92;;;30.00;90.10;;;;;;5015674;28;20026;-68
2023/06/21 13:11:55;;;;;;;5.25;3.65;;;30.10;89.70;;;;;;5015234;28;20069;-69
2023/06/21 13:14:41;;;;;;;6.00;3.70;;;30.20;89.70;;;;;;5015277;28;20121;-68
2023/06/21 13:17:27;;;;;;;5.53;3.22;;;30.30;88.40;;;;;;5014633;28;20038;-68
2023/06/21 13:20:13;;;;;;;5.55;3.85;;;30.40;87.80;;;;;;5016280;28;20065;-68
2023/06/21 13:22:59;;;;;;;4.47;3.50;;;30.50;87.10;;;;;;5014764;28;20160;-69
2023/06/21 13:25:45;;;;;;;4.80;4.03;;;30.60;86.30;;;;;;5028593;28;20021;-68
2023/06/21 13:28:31;;;;;;;5.85;3.60;;;30.70;85.90;;;;;;5014515;28;20034;-68
2023/06/21 13:31:18;;;;;;;3.50;2.55;;;30.90;85.40;;;;;;5018920;28;20128;-68
2023/06/21 13:34:04;;;;;;;5.90;3.38;;;30.90;84.20;;;;;;5026430;28;20045;-69
2023/06/21 13:36:50;;;;;;;6.18;3.38;;;30.90;83.80;;;;;;5014190;28;20033;-68
2023/06/21 13:39:36;;;;;;;10.55;4.05;;;31.10;83.10;;;;;;5021354;28;20033;-68
2023/06/21 13:42:21;;;;;;;5.43;3.13;;;31.10;82.10;;;;;;5011007;28;20042;-68
2023/06/21 13:45:08;;;;;;;4.53;3.35;;;31.20;82.10;;;;;;5010902;28;20100;-68
2023/06/21 13:47:54;;;;;;;7.93;3.60;;;31.30;81.60;;;;;;5009610;28;20449;-68
2023/06/21 13:50:40;;;;;;;4.40;3.30;;;31.40;81.30;;;;;;5012996;28;20065;-69
2023/06/21 13:53:27;;;;;;;6.32;3.80;;;31.40;79.40;;;;;;5011119;28;20087;-69
2023/06/21 13:56:13;;;;;;;4.55;3.30;;;31.40;79.20;;;;;;5020757;28;20529;-68
2023/06/21 13:58:59;;;;;;;4.88;3.20;;;31.30;78.00;;;;;;5022796;28;20444;-68
2023/06/21 14:01:45;;;;;;;4.55;3.40;;;31.30;77.80;;;;;;5020768;28;20049;-68
2023/06/21 14:04:31;;;;;;;4.65;3.80;;;31.30;77.70;;;;;;5016210;28;20036;-68
2023/06/21 14:07:17;;;;;;;6.25;3.83;;;31.20;77.30;;;;;;5027605;28;20049;-69
2023/06/21 14:10:04;;;;;;;5.78;3.35;;;31.20;76.50;;;;;;5022851;28;20045;-68
2023/06/21 14:12:50;;;;;;;5.72;3.22;;;31.00;76.50;;;;;;5027475;28;20042;-68
2023/06/21 14:15:36;;;;;;;5.80;3.83;;;31.00;76.70;;;;;;5023971;28;20040;-67
2023/06/21 14:18:28;;;;;;;4.85;3.40;;;31.00;76.80;;;;;;5026026;28;20490;-67
2023/06/21 14:21:15;;;;;;;5.85;3.78;;;31.00;76.40;;;;;;5019171;28;20056;-68